sensor_id;sensor_type;location;lat;lon;timestamp;P1;durP1;ratioP1;P2;durP2;ratioP2
40286;SDS011;25998;46.604;13.610;2023-09-12T00:00:25;8.73;;;7.78;;
40286;SDS011;25998;46.604;13.610;2023-09-12T00:03:36;8.70;;;7.80;;
40286;SDS011;25998;46.604;13.610;2023-09-12T00:06:47;8.15;;;7.32;;
40286;SDS011;25998;46.604;13.610;2023-09-12T00:09:58;7.82;;;7.07;;
40286;SDS011;25998;46.604;13.610;2023-09-12T00:13:08;11.55;;;7.47;;
40286;SDS011;25998;46.604;13.610;2023-09-12T00:16:20;8.85;;;8.00;;
40286;SDS011;25998;46.604;13.610;2023-09-12T00:19:30;8.70;;;7.90;;
40286;SDS011;25998;46.604;13.610;2023-09-12T00:22:41;8.50;;;7.60;;
40286;SDS011;25998;46.604;13.610;2023-09-12T00:25:52;9.45;;;8.27;;
40286;SDS011;25998;46.604;13.610;2023-09-12T00:29:03;8.35;;;7.55;;
40286;SDS011;25998;46.604;13.610;2023-09-12T00:32:14;8.60;;;7.72;;
40286;SDS011;25998;46.604;13.610;2023-09-12T00:35:24;8.07;;;7.30;;
40286;SDS011;25998;46.604;13.610;2023-09-12T00:38:35;10.23;;;7.65;;
40286;SDS011;25998;46.604;13.610;2023-09-12T00:41:46;8.45;;;7.65;;
40286;SDS011;25998;46.604;13.610;2023-09-12T00:44:57;10.45;;;8.18;;
40286;SDS011;25998;46.604;13.610;2023-09-12T00:48:08;8.98;;;8.00;;
40286;SDS011;25998;46.604;13.610;2023-09-12T00:51:20;9.57;;;7.60;;
40286;SDS011;25998;46.604;13.610;2023-09-12T00:54:33;10.23;;;8.27;;
40286;SDS011;25998;46.604;13.610;2023-09-12T00:57:44;8.15;;;7.40;;
40286;SDS011;25998;46.604;13.610;2023-09-12T01:00:56;8.65;;;7.75;;
40286;SDS011;25998;46.604;13.610;2023-09-12T01:04:09;8.38;;;7.68;;
40286;SDS011;25998;46.604;13.610;2023-09-12T01:07:20;9.18;;;8.27;;
40286;SDS011;25998;46.604;13.610;2023-09-12T01:10:31;9.15;;;8.00;;
40286;SDS011;25998;46.604;13.610;2023-09-12T01:13:42;8.68;;;7.78;;
40286;SDS011;25998;46.604;13.610;2023-09-12T01:16:52;9.73;;;8.35;;
40286;SDS011;25998;46.604;13.610;2023-09-12T01:20:04;10.55;;;7.68;;
40286;SDS011;25998;46.604;13.610;2023-09-12T01:29:50;9.65;;;8.13;;
40286;SDS011;25998;46.604;13.610;2023-09-12T01:33:04;10.70;;;8.45;;
40286;SDS011;25998;46.604;13.610;2023-09-12T01:36:16;10.68;;;8.90;;
40286;SDS011;25998;46.604;13.610;2023-09-12T01:39:27;12.63;;;8.75;;
40286;SDS011;25998;46.604;13.610;2023-09-12T01:42:40;9.20;;;8.30;;
40286;SDS011;25998;46.604;13.610;2023-09-12T01:45:57;10.23;;;8.52;;
40286;SDS011;25998;46.604;13.610;2023-09-12T01:49:10;9.43;;;8.43;;
40286;SDS011;25998;46.604;13.610;2023-09-12T01:52:23;9.70;;;8.80;;
40286;SDS011;25998;46.604;13.610;2023-09-12T01:55:36;9.30;;;8.43;;
40286;SDS011;25998;46.604;13.610;2023-09-12T01:58:48;9.98;;;8.98;;
40286;SDS011;25998;46.604;13.610;2023-09-12T02:01:58;9.82;;;8.82;;
40286;SDS011;25998;46.604;13.610;2023-09-12T02:05:19;10.15;;;8.93;;
40286;SDS011;25998;46.604;13.610;2023-09-12T02:08:32;10.30;;;9.20;;
40286;SDS011;25998;46.604;13.610;2023-09-12T02:11:43;9.63;;;8.63;;
40286;SDS011;25998;46.604;13.610;2023-09-12T02:14:54;9.57;;;8.55;;
40286;SDS011;25998;46.604;13.610;2023-09-12T02:18:05;11.18;;;9.40;;
40286;SDS011;25998;46.604;13.610;2023-09-12T02:21:16;9.88;;;8.43;;
40286;SDS011;25998;46.604;13.610;2023-09-12T02:24:26;10.15;;;9.18;;
40286;SDS011;25998;46.604;13.610;2023-09-12T02:27:37;9.75;;;8.85;;
40286;SDS011;25998;46.604;13.610;2023-09-12T02:30:48;9.85;;;8.80;;
40286;SDS011;25998;46.604;13.610;2023-09-12T02:33:59;9.43;;;8.52;;
40286;SDS011;25998;46.604;13.610;2023-09-12T02:37:10;11.38;;;8.80;;
40286;SDS011;25998;46.604;13.610;2023-09-12T02:40:21;12.68;;;9.10;;
40286;SDS011;25998;46.604;13.610;2023-09-12T02:43:32;10.00;;;9.00;;
40286;SDS011;25998;46.604;13.610;2023-09-12T02:46:42;11.70;;;10.27;;
40286;SDS011;25998;46.604;13.610;2023-09-12T02:49:53;9.90;;;8.90;;
40286;SDS011;25998;46.604;13.610;2023-09-12T02:53:04;11.15;;;9.57;;
40286;SDS011;25998;46.604;13.610;2023-09-12T02:56:16;10.05;;;9.05;;
40286;SDS011;25998;46.604;13.610;2023-09-12T02:59:27;10.40;;;9.23;;
40286;SDS011;25998;46.604;13.610;2023-09-12T03:02:39;10.98;;;9.10;;
40286;SDS011;25998;46.604;13.610;2023-09-12T03:05:57;10.77;;;9.68;;
40286;SDS011;25998;46.604;13.610;2023-09-12T03:09:12;10.63;;;9.38;;
40286;SDS011;25998;46.604;13.610;2023-09-12T03:12:24;11.38;;;9.23;;
40286;SDS011;25998;46.604;13.610;2023-09-12T03:15:37;9.20;;;8.40;;
40286;SDS011;25998;46.604;13.610;2023-09-12T03:18:48;9.75;;;8.75;;
40286;SDS011;25998;46.604;13.610;2023-09-12T03:21:59;9.35;;;8.43;;
40286;SDS011;25998;46.604;13.610;2023-09-12T03:25:10;12.25;;;9.23;;
40286;SDS011;25998;46.604;13.610;2023-09-12T03:28:21;9.63;;;8.73;;
40286;SDS011;25998;46.604;13.610;2023-09-12T03:31:31;9.68;;;8.63;;
40286;SDS011;25998;46.604;13.610;2023-09-12T03:34:42;11.90;;;8.88;;
40286;SDS011;25998;46.604;13.610;2023-09-12T03:37:53;9.15;;;8.23;;
40286;SDS011;25998;46.604;13.610;2023-09-12T03:41:04;10.95;;;9.35;;
40286;SDS011;25998;46.604;13.610;2023-09-12T03:44:15;9.45;;;8.45;;
40286;SDS011;25998;46.604;13.610;2023-09-12T03:47:26;11.00;;;9.88;;
40286;SDS011;25998;46.604;13.610;2023-09-12T03:50:37;9.02;;;8.23;;
40286;SDS011;25998;46.604;13.610;2023-09-12T03:53:47;11.15;;;9.95;;
40286;SDS011;25998;46.604;13.610;2023-09-12T03:57:00;9.93;;;8.93;;
40286;SDS011;25998;46.604;13.610;2023-09-12T04:00:11;12.45;;;10.25;;
40286;SDS011;25998;46.604;13.610;2023-09-12T04:03:22;11.77;;;9.73;;
40286;SDS011;25998;46.604;13.610;2023-09-12T04:06:33;11.27;;;9.25;;
40286;SDS011;25998;46.604;13.610;2023-09-12T04:09:44;9.95;;;9.05;;
40286;SDS011;25998;46.604;13.610;2023-09-12T04:12:55;10.88;;;8.85;;
40286;SDS011;25998;46.604;13.610;2023-09-12T04:16:06;10.23;;;8.80;;
40286;SDS011;25998;46.604;13.610;2023-09-12T04:19:17;14.65;;;10.63;;
40286;SDS011;25998;46.604;13.610;2023-09-12T04:22:27;15.00;;;10.15;;
40286;SDS011;25998;46.604;13.610;2023-09-12T04:25:41;17.25;;;10.35;;
40286;SDS011;25998;46.604;13.610;2023-09-12T04:28:53;14.65;;;9.82;;
40286;SDS011;25998;46.604;13.610;2023-09-12T04:32:04;10.98;;;9.88;;
40286;SDS011;25998;46.604;13.610;2023-09-12T04:35:16;14.18;;;10.95;;
40286;SDS011;25998;46.604;13.610;2023-09-12T04:38:29;11.18;;;10.07;;
40286;SDS011;25998;46.604;13.610;2023-09-12T04:41:40;16.63;;;10.48;;
40286;SDS011;25998;46.604;13.610;2023-09-12T04:44:51;13.93;;;10.40;;
40286;SDS011;25998;46.604;13.610;2023-09-12T04:48:02;11.50;;;10.05;;
40286;SDS011;25998;46.604;13.610;2023-09-12T04:51:13;12.57;;;10.40;;
40286;SDS011;25998;46.604;13.610;2023-09-12T04:54:24;12.10;;;9.48;;
40286;SDS011;25998;46.604;13.610;2023-09-12T04:57:35;12.73;;;9.27;;
40286;SDS011;25998;46.604;13.610;2023-09-12T05:00:46;21.40;;;10.80;;
40286;SDS011;25998;46.604;13.610;2023-09-12T05:03:57;21.15;;;10.95;;
40286;SDS011;25998;46.604;13.610;2023-09-12T05:07:08;22.42;;;11.10;;
40286;SDS011;25998;46.604;13.610;2023-09-12T05:10:19;26.30;;;12.50;;
40286;SDS011;25998;46.604;13.610;2023-09-12T05:13:29;18.35;;;10.63;;
40286;SDS011;25998;46.604;13.610;2023-09-12T05:16:40;18.00;;;10.45;;
40286;SDS011;25998;46.604;13.610;2023-09-12T05:19:51;14.70;;;10.23;;
40286;SDS011;25998;46.604;13.610;2023-09-12T05:23:02;18.10;;;10.88;;
40286;SDS011;25998;46.604;13.610;2023-09-12T05:26:13;32.15;;;12.23;;
40286;SDS011;25998;46.604;13.610;2023-09-12T05:29:24;19.23;;;10.63;;
40286;SDS011;25998;46.604;13.610;2023-09-12T05:32:34;29.90;;;13.00;;
40286;SDS011;25998;46.604;13.610;2023-09-12T05:35:46;50.10;;;13.10;;
40286;SDS011;25998;46.604;13.610;2023-09-12T05:38:57;28.17;;;11.75;;
40286;SDS011;25998;46.604;13.610;2023-09-12T05:42:08;27.67;;;12.63;;
40286;SDS011;25998;46.604;13.610;2023-09-12T05:45:19;24.52;;;12.55;;
40286;SDS011;25998;46.604;13.610;2023-09-12T05:48:30;32.80;;;11.75;;
40286;SDS011;25998;46.604;13.610;2023-09-12T05:51:40;14.02;;;10.15;;
40286;SDS011;25998;46.604;13.610;2023-09-12T05:54:52;34.45;;;12.00;;
40286;SDS011;25998;46.604;13.610;2023-09-12T05:58:04;27.20;;;12.85;;
40286;SDS011;25998;46.604;13.610;2023-09-12T06:01:15;30.92;;;12.85;;
40286;SDS011;25998;46.604;13.610;2023-09-12T06:04:26;34.88;;;13.82;;
40286;SDS011;25998;46.604;13.610;2023-09-12T06:07:37;33.58;;;13.80;;
40286;SDS011;25998;46.604;13.610;2023-09-12T06:10:50;32.42;;;13.60;;
40286;SDS011;25998;46.604;13.610;2023-09-12T06:14:03;45.20;;;15.27;;
40286;SDS011;25998;46.604;13.610;2023-09-12T06:17:14;48.15;;;15.65;;
40286;SDS011;25998;46.604;13.610;2023-09-12T06:20:25;37.20;;;14.18;;
40286;SDS011;25998;46.604;13.610;2023-09-12T06:23:36;30.13;;;13.38;;
40286;SDS011;25998;46.604;13.610;2023-09-12T06:26:47;37.10;;;14.98;;
40286;SDS011;25998;46.604;13.610;2023-09-12T06:29:58;43.88;;;16.42;;
40286;SDS011;25998;46.604;13.610;2023-09-12T06:33:09;40.92;;;15.55;;
40286;SDS011;25998;46.604;13.610;2023-09-12T06:36:20;41.25;;;16.08;;
40286;SDS011;25998;46.604;13.610;2023-09-12T06:39:30;36.47;;;14.20;;
40286;SDS011;25998;46.604;13.610;2023-09-12T06:42:41;32.38;;;14.45;;
40286;SDS011;25998;46.604;13.610;2023-09-12T06:45:53;24.45;;;12.85;;
40286;SDS011;25998;46.604;13.610;2023-09-12T06:49:05;26.58;;;13.98;;
40286;SDS011;25998;46.604;13.610;2023-09-12T06:52:16;19.92;;;11.57;;
40286;SDS011;25998;46.604;13.610;2023-09-12T06:55:27;15.98;;;10.38;;
40286;SDS011;25998;46.604;13.610;2023-09-12T06:58:38;12.05;;;9.73;;
40286;SDS011;25998;46.604;13.610;2023-09-12T07:01:49;17.25;;;9.30;;
40286;SDS011;25998;46.604;13.610;2023-09-12T07:05:00;14.20;;;10.32;;
40286;SDS011;25998;46.604;13.610;2023-09-12T07:08:11;10.80;;;9.70;;
40286;SDS011;25998;46.604;13.610;2023-09-12T07:11:22;18.55;;;9.73;;
40286;SDS011;25998;46.604;13.610;2023-09-12T07:14:34;18.52;;;10.98;;
40286;SDS011;25998;46.604;13.610;2023-09-12T07:17:47;15.50;;;9.20;;
40286;SDS011;25998;46.604;13.610;2023-09-12T07:21:02;19.08;;;9.65;;
40286;SDS011;25998;46.604;13.610;2023-09-12T07:24:14;15.95;;;9.45;;
40286;SDS011;25998;46.604;13.610;2023-09-12T07:27:25;11.93;;;8.57;;
40286;SDS011;25998;46.604;13.610;2023-09-12T07:30:36;13.43;;;8.63;;
40286;SDS011;25998;46.604;13.610;2023-09-12T07:33:47;10.38;;;8.65;;
40286;SDS011;25998;46.604;13.610;2023-09-12T07:36:58;13.13;;;9.18;;
40286;SDS011;25998;46.604;13.610;2023-09-12T07:40:09;11.40;;;8.05;;
40286;SDS011;25998;46.604;13.610;2023-09-12T07:43:21;10.20;;;9.10;;
40286;SDS011;25998;46.604;13.610;2023-09-12T07:46:31;15.05;;;8.77;;
40286;SDS011;25998;46.604;13.610;2023-09-12T07:49:42;11.15;;;9.40;;
40286;SDS011;25998;46.604;13.610;2023-09-12T07:52:53;8.75;;;7.82;;
40286;SDS011;25998;46.604;13.610;2023-09-12T07:56:04;12.18;;;8.05;;
40286;SDS011;25998;46.604;13.610;2023-09-12T07:59:15;10.10;;;8.18;;
40286;SDS011;25998;46.604;13.610;2023-09-12T08:02:26;11.60;;;8.38;;
40286;SDS011;25998;46.604;13.610;2023-09-12T08:05:36;9.15;;;7.88;;
40286;SDS011;25998;46.604;13.610;2023-09-12T08:08:48;10.57;;;8.38;;
40286;SDS011;25998;46.604;13.610;2023-09-12T08:11:59;10.13;;;8.55;;
40286;SDS011;25998;46.604;13.610;2023-09-12T08:15:09;10.32;;;8.32;;
40286;SDS011;25998;46.604;13.610;2023-09-12T08:18:20;10.75;;;7.78;;
40286;SDS011;25998;46.604;13.610;2023-09-12T08:21:31;9.57;;;8.27;;
40286;SDS011;25998;46.604;13.610;2023-09-12T08:24:42;11.55;;;8.45;;
40286;SDS011;25998;46.604;13.610;2023-09-12T08:27:52;12.65;;;8.52;;
40286;SDS011;25998;46.604;13.610;2023-09-12T08:31:03;13.63;;;8.60;;
40286;SDS011;25998;46.604;13.610;2023-09-12T08:34:14;12.95;;;7.72;;
40286;SDS011;25998;46.604;13.610;2023-09-12T08:37:25;13.55;;;7.95;;
40286;SDS011;25998;46.604;13.610;2023-09-12T08:40:37;11.70;;;8.18;;
40286;SDS011;25998;46.604;13.610;2023-09-12T08:43:48;13.18;;;8.27;;
40286;SDS011;25998;46.604;13.610;2023-09-12T08:46:59;38.28;;;9.57;;
40286;SDS011;25998;46.604;13.610;2023-09-12T08:50:12;14.15;;;8.45;;
40286;SDS011;25998;46.604;13.610;2023-09-12T08:53:24;10.38;;;8.25;;
40286;SDS011;25998;46.604;13.610;2023-09-12T08:56:36;11.80;;;8.07;;
40286;SDS011;25998;46.604;13.610;2023-09-12T08:59:50;13.35;;;8.00;;
40286;SDS011;25998;46.604;13.610;2023-09-12T09:03:02;10.35;;;7.78;;
40286;SDS011;25998;46.604;13.610;2023-09-12T09:06:14;13.18;;;8.65;;
40286;SDS011;25998;46.604;13.610;2023-09-12T09:09:28;9.77;;;7.55;;
40286;SDS011;25998;46.604;13.610;2023-09-12T09:12:40;11.15;;;7.97;;
40286;SDS011;25998;46.604;13.610;2023-09-12T09:19:22;10.75;;;7.05;;
40286;SDS011;25998;46.604;13.610;2023-09-12T09:26:06;9.65;;;6.85;;
40286;SDS011;25998;46.604;13.610;2023-09-12T09:29:18;10.73;;;7.20;;
40286;SDS011;25998;46.604;13.610;2023-09-12T09:32:29;10.15;;;7.38;;
40286;SDS011;25998;46.604;13.610;2023-09-12T09:35:41;10.05;;;6.90;;
40286;SDS011;25998;46.604;13.610;2023-09-12T09:38:54;10.90;;;7.32;;
40286;SDS011;25998;46.604;13.610;2023-09-12T09:42:09;10.95;;;8.02;;
40286;SDS011;25998;46.604;13.610;2023-09-12T09:45:21;10.23;;;6.50;;
40286;SDS011;25998;46.604;13.610;2023-09-12T09:48:33;10.25;;;6.63;;
40286;SDS011;25998;46.604;13.610;2023-09-12T09:51:45;9.43;;;6.15;;
40286;SDS011;25998;46.604;13.610;2023-09-12T09:54:56;12.63;;;6.03;;
40286;SDS011;25998;46.604;13.610;2023-09-12T09:58:07;8.55;;;6.72;;
40286;SDS011;25998;46.604;13.610;2023-09-12T10:01:22;11.20;;;6.28;;
40286;SDS011;25998;46.604;13.610;2023-09-12T10:04:35;10.85;;;6.35;;
40286;SDS011;25998;46.604;13.610;2023-09-12T10:07:47;10.32;;;6.30;;
40286;SDS011;25998;46.604;13.610;2023-09-12T10:11:00;18.05;;;7.80;;
40286;SDS011;25998;46.604;13.610;2023-09-12T10:14:11;15.35;;;6.68;;
40286;SDS011;25998;46.604;13.610;2023-09-12T10:17:26;10.13;;;6.78;;
40286;SDS011;25998;46.604;13.610;2023-09-12T10:20:54;8.32;;;6.70;;
40286;SDS011;25998;46.604;13.610;2023-09-12T10:24:08;8.57;;;6.65;;
40286;SDS011;25998;46.604;13.610;2023-09-12T10:27:19;16.15;;;7.20;;
40286;SDS011;25998;46.604;13.610;2023-09-12T10:30:32;9.50;;;6.85;;
40286;SDS011;25998;46.604;13.610;2023-09-12T10:33:44;10.18;;;7.07;;
40286;SDS011;25998;46.604;13.610;2023-09-12T10:36:58;10.32;;;7.10;;
40286;SDS011;25998;46.604;13.610;2023-09-12T10:40:10;8.88;;;6.65;;
40286;SDS011;25998;46.604;13.610;2023-09-12T10:43:23;7.47;;;6.40;;
40286;SDS011;25998;46.604;13.610;2023-09-12T10:46:36;8.13;;;7.03;;
40286;SDS011;25998;46.604;13.610;2023-09-12T10:49:49;9.98;;;7.60;;
40286;SDS011;25998;46.604;13.610;2023-09-12T10:53:10;9.55;;;8.32;;
40286;SDS011;25998;46.604;13.610;2023-09-12T10:56:22;104.43;;;29.23;;
40286;SDS011;25998;46.604;13.610;2023-09-12T11:06:39;10.07;;;7.45;;
40286;SDS011;25998;46.604;13.610;2023-09-12T11:10:03;13.00;;;7.68;;
40286;SDS011;25998;46.604;13.610;2023-09-12T11:13:28;10.13;;;7.53;;
40286;SDS011;25998;46.604;13.610;2023-09-12T11:17:24;10.75;;;7.65;;
40286;SDS011;25998;46.604;13.610;2023-09-12T11:20:48;10.88;;;8.13;;
40286;SDS011;25998;46.604;13.610;2023-09-12T11:24:02;13.07;;;7.85;;
40286;SDS011;25998;46.604;13.610;2023-09-12T11:27:14;12.68;;;7.90;;
40286;SDS011;25998;46.604;13.610;2023-09-12T11:30:26;10.48;;;8.00;;
40286;SDS011;25998;46.604;13.610;2023-09-12T11:33:44;9.45;;;8.45;;
40286;SDS011;25998;46.604;13.610;2023-09-12T11:36:56;9.80;;;8.00;;
40286;SDS011;25998;46.604;13.610;2023-09-12T11:43:24;9.27;;;7.75;;
40286;SDS011;25998;46.604;13.610;2023-09-12T11:46:37;9.27;;;7.80;;
40286;SDS011;25998;46.604;13.610;2023-09-12T11:49:48;10.48;;;7.95;;
40286;SDS011;25998;46.604;13.610;2023-09-12T11:53:03;8.98;;;7.55;;
40286;SDS011;25998;46.604;13.610;2023-09-12T11:56:18;8.70;;;7.88;;
40286;SDS011;25998;46.604;13.610;2023-09-12T11:59:31;11.07;;;7.70;;
40286;SDS011;25998;46.604;13.610;2023-09-12T12:02:43;9.45;;;7.53;;
40286;SDS011;25998;46.604;13.610;2023-09-12T12:05:55;9.80;;;7.18;;
40286;SDS011;25998;46.604;13.610;2023-09-12T12:09:06;8.10;;;7.25;;
40286;SDS011;25998;46.604;13.610;2023-09-12T12:12:19;11.20;;;7.63;;
40286;SDS011;25998;46.604;13.610;2023-09-12T12:15:31;9.95;;;7.50;;
40286;SDS011;25998;46.604;13.610;2023-09-12T12:18:42;11.50;;;7.93;;
40286;SDS011;25998;46.604;13.610;2023-09-12T12:21:53;9.25;;;7.70;;
40286;SDS011;25998;46.604;13.610;2023-09-12T12:25:07;10.70;;;7.70;;
40286;SDS011;25998;46.604;13.610;2023-09-12T12:28:20;9.05;;;7.78;;
40286;SDS011;25998;46.604;13.610;2023-09-12T12:31:31;9.55;;;7.57;;
40286;SDS011;25998;46.604;13.610;2023-09-12T12:34:47;8.60;;;7.05;;
40286;SDS011;25998;46.604;13.610;2023-09-12T12:37:59;9.13;;;6.65;;
40286;SDS011;25998;46.604;13.610;2023-09-12T12:41:10;8.95;;;6.53;;
40286;SDS011;25998;46.604;13.610;2023-09-12T12:44:21;8.25;;;7.13;;
40286;SDS011;25998;46.604;13.610;2023-09-12T12:47:32;10.70;;;6.47;;
40286;SDS011;25998;46.604;13.610;2023-09-12T12:50:43;8.25;;;6.93;;
40286;SDS011;25998;46.604;13.610;2023-09-12T12:53:54;8.82;;;7.18;;
40286;SDS011;25998;46.604;13.610;2023-09-12T12:57:13;10.27;;;7.90;;
40286;SDS011;25998;46.604;13.610;2023-09-12T13:00:29;9.20;;;6.97;;
40286;SDS011;25998;46.604;13.610;2023-09-12T13:03:40;7.75;;;6.80;;
40286;SDS011;25998;46.604;13.610;2023-09-12T13:06:51;8.30;;;7.15;;
40286;SDS011;25998;46.604;13.610;2023-09-12T13:10:02;9.40;;;7.47;;
40286;SDS011;25998;46.604;13.610;2023-09-12T13:13:14;8.10;;;6.38;;
40286;SDS011;25998;46.604;13.610;2023-09-12T13:16:25;11.65;;;7.07;;
40286;SDS011;25998;46.604;13.610;2023-09-12T13:19:36;11.18;;;7.10;;
40286;SDS011;25998;46.604;13.610;2023-09-12T13:22:47;9.48;;;6.15;;
40286;SDS011;25998;46.604;13.610;2023-09-12T13:25:58;7.47;;;6.28;;
40286;SDS011;25998;46.604;13.610;2023-09-12T13:29:08;14.88;;;6.95;;
40286;SDS011;25998;46.604;13.610;2023-09-12T13:32:20;9.73;;;6.65;;
40286;SDS011;25998;46.604;13.610;2023-09-12T13:35:31;7.18;;;6.00;;
40286;SDS011;25998;46.604;13.610;2023-09-12T13:38:42;6.65;;;4.90;;
40286;SDS011;25998;46.604;13.610;2023-09-12T13:41:53;7.00;;;5.25;;
40286;SDS011;25998;46.604;13.610;2023-09-12T13:45:08;10.02;;;5.55;;
40286;SDS011;25998;46.604;13.610;2023-09-12T13:48:19;7.63;;;4.97;;
40286;SDS011;25998;46.604;13.610;2023-09-12T13:51:29;9.45;;;5.45;;
40286;SDS011;25998;46.604;13.610;2023-09-12T13:54:40;7.60;;;5.40;;
40286;SDS011;25998;46.604;13.610;2023-09-12T13:57:51;10.15;;;5.53;;
40286;SDS011;25998;46.604;13.610;2023-09-12T14:01:02;7.57;;;6.20;;
40286;SDS011;25998;46.604;13.610;2023-09-12T14:04:13;8.80;;;6.13;;
40286;SDS011;25998;46.604;13.610;2023-09-12T14:07:26;9.43;;;5.90;;
40286;SDS011;25998;46.604;13.610;2023-09-12T14:10:37;11.00;;;6.10;;
40286;SDS011;25998;46.604;13.610;2023-09-12T14:13:47;6.75;;;5.13;;
40286;SDS011;25998;46.604;13.610;2023-09-12T14:16:58;9.02;;;5.28;;
40286;SDS011;25998;46.604;13.610;2023-09-12T14:20:09;8.60;;;5.80;;
40286;SDS011;25998;46.604;13.610;2023-09-12T14:23:23;6.88;;;6.10;;
40286;SDS011;25998;46.604;13.610;2023-09-12T14:26:34;10.75;;;5.63;;
40286;SDS011;25998;46.604;13.610;2023-09-12T14:29:45;8.68;;;5.18;;
40286;SDS011;25998;46.604;13.610;2023-09-12T14:32:58;8.25;;;5.53;;
40286;SDS011;25998;46.604;13.610;2023-09-12T14:36:09;7.35;;;6.20;;
40286;SDS011;25998;46.604;13.610;2023-09-12T14:39:23;8.02;;;6.00;;
40286;SDS011;25998;46.604;13.610;2023-09-12T14:42:35;7.82;;;5.32;;
40286;SDS011;25998;46.604;13.610;2023-09-12T14:45:46;9.98;;;5.60;;
40286;SDS011;25998;46.604;13.610;2023-09-12T14:48:56;9.23;;;5.38;;
40286;SDS011;25998;46.604;13.610;2023-09-12T14:52:07;8.45;;;5.22;;
40286;SDS011;25998;46.604;13.610;2023-09-12T14:55:19;7.20;;;5.50;;
40286;SDS011;25998;46.604;13.610;2023-09-12T14:58:30;8.55;;;4.97;;
40286;SDS011;25998;46.604;13.610;2023-09-12T15:01:40;7.55;;;4.78;;
40286;SDS011;25998;46.604;13.610;2023-09-12T15:04:51;9.10;;;5.47;;
40286;SDS011;25998;46.604;13.610;2023-09-12T15:08:02;11.88;;;5.80;;
40286;SDS011;25998;46.604;13.610;2023-09-12T15:11:13;10.77;;;5.57;;
40286;SDS011;25998;46.604;13.610;2023-09-12T15:14:24;11.65;;;6.00;;
40286;SDS011;25998;46.604;13.610;2023-09-12T15:17:35;9.07;;;5.32;;
40286;SDS011;25998;46.604;13.610;2023-09-12T15:20:46;8.77;;;5.65;;
40286;SDS011;25998;46.604;13.610;2023-09-12T15:23:57;11.40;;;5.43;;
40286;SDS011;25998;46.604;13.610;2023-09-12T15:27:08;9.52;;;5.75;;
40286;SDS011;25998;46.604;13.610;2023-09-12T15:30:19;11.23;;;5.70;;
40286;SDS011;25998;46.604;13.610;2023-09-12T15:33:29;8.35;;;5.10;;
40286;SDS011;25998;46.604;13.610;2023-09-12T15:36:44;11.00;;;5.50;;
40286;SDS011;25998;46.604;13.610;2023-09-12T15:39:56;8.93;;;5.75;;
40286;SDS011;25998;46.604;13.610;2023-09-12T15:43:07;6.97;;;5.32;;
40286;SDS011;25998;46.604;13.610;2023-09-12T15:46:18;8.23;;;5.72;;
40286;SDS011;25998;46.604;13.610;2023-09-12T15:49:29;11.00;;;5.97;;
40286;SDS011;25998;46.604;13.610;2023-09-12T15:52:40;7.93;;;5.35;;
40286;SDS011;25998;46.604;13.610;2023-09-12T15:55:51;8.48;;;6.10;;
40286;SDS011;25998;46.604;13.610;2023-09-12T15:59:02;12.35;;;5.95;;
40286;SDS011;25998;46.604;13.610;2023-09-12T16:02:13;8.95;;;6.40;;
40286;SDS011;25998;46.604;13.610;2023-09-12T16:05:24;8.30;;;6.95;;
40286;SDS011;25998;46.604;13.610;2023-09-12T16:08:35;10.20;;;5.57;;
40286;SDS011;25998;46.604;13.610;2023-09-12T16:11:46;9.90;;;6.20;;
40286;SDS011;25998;46.604;13.610;2023-09-12T16:14:56;10.93;;;6.75;;
40286;SDS011;25998;46.604;13.610;2023-09-12T16:18:07;13.23;;;6.80;;
40286;SDS011;25998;46.604;13.610;2023-09-12T16:21:18;10.57;;;5.90;;
40286;SDS011;25998;46.604;13.610;2023-09-12T16:24:29;10.13;;;6.00;;
40286;SDS011;25998;46.604;13.610;2023-09-12T16:27:40;8.18;;;6.28;;
40286;SDS011;25998;46.604;13.610;2023-09-12T16:30:51;8.55;;;6.07;;
40286;SDS011;25998;46.604;13.610;2023-09-12T16:34:01;8.77;;;5.72;;
40286;SDS011;25998;46.604;13.610;2023-09-12T16:37:12;8.63;;;6.10;;
40286;SDS011;25998;46.604;13.610;2023-09-12T16:40:23;8.27;;;6.40;;
40286;SDS011;25998;46.604;13.610;2023-09-12T16:43:34;7.63;;;5.43;;
40286;SDS011;25998;46.604;13.610;2023-09-12T16:46:46;8.45;;;5.55;;
40286;SDS011;25998;46.604;13.610;2023-09-12T16:49:57;9.95;;;5.70;;
40286;SDS011;25998;46.604;13.610;2023-09-12T16:53:08;8.65;;;5.75;;
40286;SDS011;25998;46.604;13.610;2023-09-12T16:56:18;7.55;;;6.10;;
40286;SDS011;25998;46.604;13.610;2023-09-12T16:59:29;7.82;;;5.40;;
40286;SDS011;25998;46.604;13.610;2023-09-12T17:02:40;8.77;;;5.38;;
40286;SDS011;25998;46.604;13.610;2023-09-12T17:05:51;9.02;;;5.55;;
40286;SDS011;25998;46.604;13.610;2023-09-12T17:09:02;10.45;;;5.80;;
40286;SDS011;25998;46.604;13.610;2023-09-12T17:12:13;9.32;;;5.65;;
40286;SDS011;25998;46.604;13.610;2023-09-12T17:15:24;14.15;;;6.28;;
40286;SDS011;25998;46.604;13.610;2023-09-12T17:18:35;7.90;;;5.70;;
40286;SDS011;25998;46.604;13.610;2023-09-12T17:21:46;11.35;;;5.78;;
40286;SDS011;25998;46.604;13.610;2023-09-12T17:24:57;7.70;;;5.13;;
40286;SDS011;25998;46.604;13.610;2023-09-12T17:28:08;11.23;;;6.90;;
40286;SDS011;25998;46.604;13.610;2023-09-12T17:31:19;10.27;;;6.00;;
40286;SDS011;25998;46.604;13.610;2023-09-12T17:34:39;9.75;;;6.10;;
40286;SDS011;25998;46.604;13.610;2023-09-12T17:37:52;10.25;;;6.38;;
40286;SDS011;25998;46.604;13.610;2023-09-12T17:41:02;8.15;;;6.55;;
40286;SDS011;25998;46.604;13.610;2023-09-12T17:44:13;9.07;;;5.82;;
40286;SDS011;25998;46.604;13.610;2023-09-12T17:47:24;7.28;;;5.88;;
40286;SDS011;25998;46.604;13.610;2023-09-12T17:50:35;7.20;;;5.85;;
40286;SDS011;25998;46.604;13.610;2023-09-12T17:53:46;10.32;;;6.00;;
40286;SDS011;25998;46.604;13.610;2023-09-12T17:56:56;10.45;;;6.60;;
40286;SDS011;25998;46.604;13.610;2023-09-12T18:00:08;8.32;;;6.03;;
40286;SDS011;25998;46.604;13.610;2023-09-12T18:03:19;9.02;;;6.28;;
40286;SDS011;25998;46.604;13.610;2023-09-12T18:06:30;8.27;;;6.32;;
40286;SDS011;25998;46.604;13.610;2023-09-12T18:09:41;8.55;;;6.43;;
40286;SDS011;25998;46.604;13.610;2023-09-12T18:12:52;11.93;;;6.22;;
40286;SDS011;25998;46.604;13.610;2023-09-12T18:16:03;10.80;;;6.82;;
40286;SDS011;25998;46.604;13.610;2023-09-12T18:19:14;11.57;;;6.22;;
40286;SDS011;25998;46.604;13.610;2023-09-12T18:22:25;13.00;;;7.82;;
40286;SDS011;25998;46.604;13.610;2023-09-12T18:25:36;8.15;;;6.03;;
40286;SDS011;25998;46.604;13.610;2023-09-12T18:28:49;9.50;;;6.88;;
40286;SDS011;25998;46.604;13.610;2023-09-12T18:32:03;9.05;;;7.05;;
40286;SDS011;25998;46.604;13.610;2023-09-12T18:35:14;9.00;;;7.20;;
40286;SDS011;25998;46.604;13.610;2023-09-12T18:38:25;10.05;;;6.43;;
40286;SDS011;25998;46.604;13.610;2023-09-12T18:41:36;10.75;;;6.90;;
40286;SDS011;25998;46.604;13.610;2023-09-12T18:44:46;6.70;;;6.00;;
40286;SDS011;25998;46.604;13.610;2023-09-12T18:47:57;8.95;;;6.50;;
40286;SDS011;25998;46.604;13.610;2023-09-12T18:51:08;7.40;;;6.45;;
40286;SDS011;25998;46.604;13.610;2023-09-12T18:54:19;9.30;;;6.85;;
40286;SDS011;25998;46.604;13.610;2023-09-12T18:57:32;8.98;;;6.47;;
40286;SDS011;25998;46.604;13.610;2023-09-12T19:00:43;7.90;;;6.97;;
40286;SDS011;25998;46.604;13.610;2023-09-12T19:03:54;8.10;;;6.75;;
40286;SDS011;25998;46.604;13.610;2023-09-12T19:07:05;7.57;;;6.82;;
40286;SDS011;25998;46.604;13.610;2023-09-12T19:10:16;11.40;;;7.05;;